Terminal Aerodrome Forecast
Issued by NWS Chicago, IL

Home | Current Version | Previous Version | Graphics & Text | Print | Product List | Glossary On
Versions: 1 2 3 4 5 6 7 8 9 10 11 12 13 14 15 16 17 18 19 20 21 22 23 24 25 26 27 28 29 30 31 32 33
000
FTUS43 KLOT 191943 AAA
TAFRFD
TAF AMD
KRFD 191943Z 1920/2018 10012G17KT P6SM VCSH SCT040 BKN080 BKN250
     FM192100 05015KT 6SM -SHRA BR BKN040 OVC080
     FM192300 03012KT 4SM -SHRA BR OVC010
     FM200300 36006KT 4SM -SHRA OVC008
     FM200600 31008KT 6SM BR VCSH BKN008 OVC015
     FM201400 30020G30KT 6SM -SHRA SCT008 OVC015=

USA.gov is the U.S. government's official web portal to all federal, state and local government web resources and services.